sensor_id;sensor_type;location;lat;lon;timestamp;P1;durP1;ratioP1;P2;durP2;ratioP2
51578;SDS011;47998;53.242;6.386;2022-12-11T00:01:59;200.47;;;31.03;;
51578;SDS011;47998;53.242;6.386;2022-12-11T00:04:25;180.57;;;31.83;;
51578;SDS011;47998;53.242;6.386;2022-12-11T00:06:51;172.07;;;32.17;;
51578;SDS011;47998;53.242;6.386;2022-12-11T00:09:18;184.30;;;33.47;;
51578;SDS011;47998;53.242;6.386;2022-12-11T00:11:45;175.47;;;31.77;;
51578;SDS011;47998;53.242;6.386;2022-12-11T00:14:11;184.00;;;32.03;;
51578;SDS011;47998;53.242;6.386;2022-12-11T00:16:38;197.53;;;33.40;;
51578;SDS011;47998;53.242;6.386;2022-12-11T00:19:03;203.10;;;34.57;;
51578;SDS011;47998;53.242;6.386;2022-12-11T00:21:29;206.17;;;34.97;;
51578;SDS011;47998;53.242;6.386;2022-12-11T00:23:55;193.33;;;33.63;;
51578;SDS011;47998;53.242;6.386;2022-12-11T00:26:21;211.80;;;32.30;;
51578;SDS011;47998;53.242;6.386;2022-12-11T00:28:50;201.73;;;34.00;;
51578;SDS011;47998;53.242;6.386;2022-12-11T00:31:18;211.57;;;32.70;;
51578;SDS011;47998;53.242;6.386;2022-12-11T00:33:44;180.43;;;32.27;;
51578;SDS011;47998;53.242;6.386;2022-12-11T00:36:13;181.23;;;31.60;;
51578;SDS011;47998;53.242;6.386;2022-12-11T00:38:41;180.60;;;31.27;;
51578;SDS011;47998;53.242;6.386;2022-12-11T00:41:07;163.47;;;30.67;;
51578;SDS011;47998;53.242;6.386;2022-12-11T00:43:33;165.77;;;30.67;;
51578;SDS011;47998;53.242;6.386;2022-12-11T00:45:59;188.97;;;33.10;;
51578;SDS011;47998;53.242;6.386;2022-12-11T00:48:25;160.97;;;30.13;;
51578;SDS011;47998;53.242;6.386;2022-12-11T00:50:50;166.17;;;31.53;;
51578;SDS011;47998;53.242;6.386;2022-12-11T00:53:16;157.73;;;29.27;;
51578;SDS011;47998;53.242;6.386;2022-12-11T00:55:42;156.20;;;30.93;;
51578;SDS011;47998;53.242;6.386;2022-12-11T00:58:08;169.70;;;32.37;;
51578;SDS011;47998;53.242;6.386;2022-12-11T01:00:35;132.57;;;27.70;;
51578;SDS011;47998;53.242;6.386;2022-12-11T01:03:02;155.63;;;29.60;;
51578;SDS011;47998;53.242;6.386;2022-12-11T01:05:28;165.93;;;31.83;;
51578;SDS011;47998;53.242;6.386;2022-12-11T01:07:53;132.60;;;25.67;;
51578;SDS011;47998;53.242;6.386;2022-12-11T01:10:19;158.57;;;30.23;;
51578;SDS011;47998;53.242;6.386;2022-12-11T01:12:52;143.73;;;27.17;;
51578;SDS011;47998;53.242;6.386;2022-12-11T01:15:19;129.57;;;27.40;;
51578;SDS011;47998;53.242;6.386;2022-12-11T01:17:47;144.37;;;30.93;;
51578;SDS011;47998;53.242;6.386;2022-12-11T01:20:13;156.00;;;29.53;;
51578;SDS011;47998;53.242;6.386;2022-12-11T01:22:39;128.70;;;27.10;;
51578;SDS011;47998;53.242;6.386;2022-12-11T01:25:05;114.63;;;25.00;;
51578;SDS011;47998;53.242;6.386;2022-12-11T01:27:31;158.60;;;30.00;;
51578;SDS011;47998;53.242;6.386;2022-12-11T01:29:57;143.27;;;29.40;;
51578;SDS011;47998;53.242;6.386;2022-12-11T01:32:23;172.17;;;30.93;;
51578;SDS011;47998;53.242;6.386;2022-12-11T01:34:48;157.27;;;29.70;;
51578;SDS011;47998;53.242;6.386;2022-12-11T01:37:14;158.63;;;31.20;;
51578;SDS011;47998;53.242;6.386;2022-12-11T01:39:40;161.77;;;30.87;;
51578;SDS011;47998;53.242;6.386;2022-12-11T01:42:05;151.67;;;28.97;;
51578;SDS011;47998;53.242;6.386;2022-12-11T01:47:01;173.73;;;31.93;;
51578;SDS011;47998;53.242;6.386;2022-12-11T01:49:27;174.37;;;31.60;;
51578;SDS011;47998;53.242;6.386;2022-12-11T01:52:01;164.93;;;29.00;;
51578;SDS011;47998;53.242;6.386;2022-12-11T01:54:31;208.93;;;34.07;;
51578;SDS011;47998;53.242;6.386;2022-12-11T01:57:00;197.10;;;32.83;;
51578;SDS011;47998;53.242;6.386;2022-12-11T01:59:29;231.17;;;35.47;;
51578;SDS011;47998;53.242;6.386;2022-12-11T02:01:59;217.17;;;36.63;;
51578;SDS011;47998;53.242;6.386;2022-12-11T02:04:36;215.40;;;36.03;;
51578;SDS011;47998;53.242;6.386;2022-12-11T02:07:04;193.67;;;34.50;;
51578;SDS011;47998;53.242;6.386;2022-12-11T02:09:31;191.77;;;34.37;;
51578;SDS011;47998;53.242;6.386;2022-12-11T02:18:30;198.40;;;33.80;;
51578;SDS011;47998;53.242;6.386;2022-12-11T02:21:08;205.05;;;34.00;;
51578;SDS011;47998;53.242;6.386;2022-12-11T02:26:32;266.13;;;39.10;;
51578;SDS011;47998;53.242;6.386;2022-12-11T02:29:01;254.27;;;38.37;;
51578;SDS011;47998;53.242;6.386;2022-12-11T02:31:52;266.53;;;39.43;;
51578;SDS011;47998;53.242;6.386;2022-12-11T02:34:31;253.03;;;38.10;;
51578;SDS011;47998;53.242;6.386;2022-12-11T02:37:04;261.00;;;37.90;;
51578;SDS011;47998;53.242;6.386;2022-12-11T02:39:35;262.10;;;37.80;;
51578;SDS011;47998;53.242;6.386;2022-12-11T02:42:04;265.43;;;37.77;;
51578;SDS011;47998;53.242;6.386;2022-12-11T02:44:32;282.37;;;39.13;;
51578;SDS011;47998;53.242;6.386;2022-12-11T02:46:59;256.33;;;38.10;;
51578;SDS011;47998;53.242;6.386;2022-12-11T02:49:27;251.43;;;36.20;;
51578;SDS011;47998;53.242;6.386;2022-12-11T02:51:54;275.90;;;38.50;;
51578;SDS011;47998;53.242;6.386;2022-12-11T02:54:26;291.27;;;40.33;;
51578;SDS011;47998;53.242;6.386;2022-12-11T02:59:48;285.17;;;39.47;;
51578;SDS011;47998;53.242;6.386;2022-12-11T03:02:14;321.87;;;43.53;;
51578;SDS011;47998;53.242;6.386;2022-12-11T03:04:41;291.70;;;41.67;;
51578;SDS011;47998;53.242;6.386;2022-12-11T03:07:13;264.40;;;39.10;;
51578;SDS011;47998;53.242;6.386;2022-12-11T03:09:43;294.87;;;41.00;;
51578;SDS011;47998;53.242;6.386;2022-12-11T03:12:11;272.87;;;39.47;;
51578;SDS011;47998;53.242;6.386;2022-12-11T03:14:39;260.60;;;38.57;;
51578;SDS011;47998;53.242;6.386;2022-12-11T03:22:57;291.33;;;38.23;;
51578;SDS011;47998;53.242;6.386;2022-12-11T03:25:42;271.23;;;36.93;;
51578;SDS011;47998;53.242;6.386;2022-12-11T03:28:28;242.13;;;37.00;;
51578;SDS011;47998;53.242;6.386;2022-12-11T03:30:57;275.47;;;37.90;;
51578;SDS011;47998;53.242;6.386;2022-12-11T03:33:30;295.57;;;36.03;;
51578;SDS011;47998;53.242;6.386;2022-12-11T03:36:02;280.93;;;37.63;;
51578;SDS011;47998;53.242;6.386;2022-12-11T03:38:36;263.37;;;37.93;;
51578;SDS011;47998;53.242;6.386;2022-12-11T03:41:07;245.80;;;33.83;;
51578;SDS011;47998;53.242;6.386;2022-12-11T03:43:34;280.43;;;39.87;;
51578;SDS011;47998;53.242;6.386;2022-12-11T03:46:01;291.57;;;39.07;;
51578;SDS011;47998;53.242;6.386;2022-12-11T03:48:29;278.03;;;37.80;;
51578;SDS011;47998;53.242;6.386;2022-12-11T03:50:59;288.47;;;39.53;;
51578;SDS011;47998;53.242;6.386;2022-12-11T03:53:27;262.03;;;38.97;;
51578;SDS011;47998;53.242;6.386;2022-12-11T03:55:54;241.30;;;36.93;;
51578;SDS011;47998;53.242;6.386;2022-12-11T03:58:22;251.23;;;37.70;;
51578;SDS011;47998;53.242;6.386;2022-12-11T04:00:48;241.13;;;36.00;;
51578;SDS011;47998;53.242;6.386;2022-12-11T04:03:13;238.70;;;34.77;;
51578;SDS011;47998;53.242;6.386;2022-12-11T04:05:41;249.20;;;35.57;;
51578;SDS011;47998;53.242;6.386;2022-12-11T04:08:12;233.10;;;36.10;;
51578;SDS011;47998;53.242;6.386;2022-12-11T04:10:38;219.57;;;33.63;;
51578;SDS011;47998;53.242;6.386;2022-12-11T04:13:04;218.33;;;32.63;;
51578;SDS011;47998;53.242;6.386;2022-12-11T04:15:30;224.17;;;33.13;;
51578;SDS011;47998;53.242;6.386;2022-12-11T04:17:56;190.57;;;31.00;;
51578;SDS011;47998;53.242;6.386;2022-12-11T04:20:40;198.93;;;34.03;;
51578;SDS011;47998;53.242;6.386;2022-12-11T04:23:24;195.40;;;31.67;;
51578;SDS011;47998;53.242;6.386;2022-12-11T04:26:10;203.07;;;31.80;;
51578;SDS011;47998;53.242;6.386;2022-12-11T04:28:40;177.03;;;31.03;;
51578;SDS011;47998;53.242;6.386;2022-12-11T04:31:14;219.97;;;30.37;;
51578;SDS011;47998;53.242;6.386;2022-12-11T04:33:44;202.60;;;31.63;;
51578;SDS011;47998;53.242;6.386;2022-12-11T04:36:10;203.67;;;33.27;;
51578;SDS011;47998;53.242;6.386;2022-12-11T04:38:37;218.83;;;32.13;;
51578;SDS011;47998;53.242;6.386;2022-12-11T04:41:04;182.50;;;31.70;;
51578;SDS011;47998;53.242;6.386;2022-12-11T04:43:32;212.13;;;31.40;;
51578;SDS011;47998;53.242;6.386;2022-12-11T04:46:02;223.07;;;34.23;;
51578;SDS011;47998;53.242;6.386;2022-12-11T04:48:29;226.17;;;34.63;;
51578;SDS011;47998;53.242;6.386;2022-12-11T04:50:55;198.60;;;31.30;;
51578;SDS011;47998;53.242;6.386;2022-12-11T04:53:20;225.77;;;34.23;;
51578;SDS011;47998;53.242;6.386;2022-12-11T04:55:46;217.10;;;33.03;;
51578;SDS011;47998;53.242;6.386;2022-12-11T04:58:12;157.47;;;29.97;;
51578;SDS011;47998;53.242;6.386;2022-12-11T05:00:39;169.20;;;32.10;;
51578;SDS011;47998;53.242;6.386;2022-12-11T05:03:05;204.57;;;32.70;;
51578;SDS011;47998;53.242;6.386;2022-12-11T05:05:31;195.67;;;33.80;;
51578;SDS011;47998;53.242;6.386;2022-12-11T05:07:56;174.20;;;30.07;;
51578;SDS011;47998;53.242;6.386;2022-12-11T05:10:22;196.83;;;31.80;;
51578;SDS011;47998;53.242;6.386;2022-12-11T05:12:47;181.07;;;32.17;;
51578;SDS011;47998;53.242;6.386;2022-12-11T05:15:13;169.17;;;31.70;;
51578;SDS011;47998;53.242;6.386;2022-12-11T05:17:39;179.57;;;28.57;;
51578;SDS011;47998;53.242;6.386;2022-12-11T05:20:05;176.07;;;30.07;;
51578;SDS011;47998;53.242;6.386;2022-12-11T05:22:31;194.47;;;33.03;;
51578;SDS011;47998;53.242;6.386;2022-12-11T05:24:57;198.57;;;32.70;;
51578;SDS011;47998;53.242;6.386;2022-12-11T05:27:23;207.40;;;33.47;;
51578;SDS011;47998;53.242;6.386;2022-12-11T05:29:48;171.67;;;32.13;;
51578;SDS011;47998;53.242;6.386;2022-12-11T05:32:14;199.97;;;33.77;;
51578;SDS011;47998;53.242;6.386;2022-12-11T05:34:40;231.80;;;33.57;;
51578;SDS011;47998;53.242;6.386;2022-12-11T05:37:06;163.53;;;28.97;;
51578;SDS011;47998;53.242;6.386;2022-12-11T05:39:31;195.80;;;30.53;;
51578;SDS011;47998;53.242;6.386;2022-12-11T05:41:57;184.53;;;31.73;;
51578;SDS011;47998;53.242;6.386;2022-12-11T05:44:23;209.27;;;32.80;;
51578;SDS011;47998;53.242;6.386;2022-12-11T05:46:49;211.70;;;33.13;;
51578;SDS011;47998;53.242;6.386;2022-12-11T05:49:15;194.13;;;32.80;;
51578;SDS011;47998;53.242;6.386;2022-12-11T05:51:41;225.30;;;33.40;;
51578;SDS011;47998;53.242;6.386;2022-12-11T05:54:07;185.13;;;30.40;;
51578;SDS011;47998;53.242;6.386;2022-12-11T05:56:34;176.80;;;31.23;;
51578;SDS011;47998;53.242;6.386;2022-12-11T05:59:01;178.43;;;31.97;;
51578;SDS011;47998;53.242;6.386;2022-12-11T06:01:32;196.30;;;31.80;;
51578;SDS011;47998;53.242;6.386;2022-12-11T06:04:00;168.37;;;31.83;;
51578;SDS011;47998;53.242;6.386;2022-12-11T06:06:27;171.60;;;32.17;;
51578;SDS011;47998;53.242;6.386;2022-12-11T06:08:54;172.33;;;32.67;;
51578;SDS011;47998;53.242;6.386;2022-12-11T06:11:21;188.00;;;34.10;;
51578;SDS011;47998;53.242;6.386;2022-12-11T06:13:48;172.17;;;32.40;;
51578;SDS011;47998;53.242;6.386;2022-12-11T06:16:14;157.83;;;30.37;;
51578;SDS011;47998;53.242;6.386;2022-12-11T06:18:41;241.60;;;35.03;;
51578;SDS011;47998;53.242;6.386;2022-12-11T06:23:42;172.33;;;32.37;;
51578;SDS011;47998;53.242;6.386;2022-12-11T06:26:11;179.67;;;32.30;;
51578;SDS011;47998;53.242;6.386;2022-12-11T06:28:37;194.53;;;32.73;;
51578;SDS011;47998;53.242;6.386;2022-12-11T06:31:03;145.83;;;29.70;;
51578;SDS011;47998;53.242;6.386;2022-12-11T06:33:30;174.23;;;33.73;;
51578;SDS011;47998;53.242;6.386;2022-12-11T06:35:59;183.80;;;33.47;;
51578;SDS011;47998;53.242;6.386;2022-12-11T06:38:27;194.20;;;31.30;;
51578;SDS011;47998;53.242;6.386;2022-12-11T06:40:53;182.53;;;30.70;;
51578;SDS011;47998;53.242;6.386;2022-12-11T06:43:28;179.40;;;30.10;;
51578;SDS011;47998;53.242;6.386;2022-12-11T06:45:54;155.30;;;28.17;;
51578;SDS011;47998;53.242;6.386;2022-12-11T06:48:20;166.43;;;31.10;;
51578;SDS011;47998;53.242;6.386;2022-12-11T06:50:46;169.20;;;30.77;;
51578;SDS011;47998;53.242;6.386;2022-12-11T06:53:12;170.10;;;31.23;;
51578;SDS011;47998;53.242;6.386;2022-12-11T06:55:39;193.23;;;29.87;;
51578;SDS011;47998;53.242;6.386;2022-12-11T06:58:05;179.67;;;30.30;;
51578;SDS011;47998;53.242;6.386;2022-12-11T07:00:33;193.57;;;31.07;;
51578;SDS011;47998;53.242;6.386;2022-12-11T07:03:00;182.20;;;28.83;;
51578;SDS011;47998;53.242;6.386;2022-12-11T07:05:26;170.83;;;30.10;;
51578;SDS011;47998;53.242;6.386;2022-12-11T07:07:52;172.00;;;29.00;;
51578;SDS011;47998;53.242;6.386;2022-12-11T07:10:19;157.83;;;29.30;;
51578;SDS011;47998;53.242;6.386;2022-12-11T07:12:45;171.73;;;30.50;;
51578;SDS011;47998;53.242;6.386;2022-12-11T07:15:10;182.03;;;30.47;;
51578;SDS011;47998;53.242;6.386;2022-12-11T07:17:36;155.47;;;28.13;;
51578;SDS011;47998;53.242;6.386;2022-12-11T07:20:02;193.00;;;30.80;;
51578;SDS011;47998;53.242;6.386;2022-12-11T07:22:28;170.67;;;31.70;;
51578;SDS011;47998;53.242;6.386;2022-12-11T07:24:54;167.00;;;29.50;;
51578;SDS011;47998;53.242;6.386;2022-12-11T07:27:20;142.83;;;27.27;;
51578;SDS011;47998;53.242;6.386;2022-12-11T07:29:46;171.07;;;29.63;;
51578;SDS011;47998;53.242;6.386;2022-12-11T07:32:11;197.80;;;30.77;;
51578;SDS011;47998;53.242;6.386;2022-12-11T07:34:37;185.93;;;32.07;;
51578;SDS011;47998;53.242;6.386;2022-12-11T07:37:03;188.83;;;31.33;;
51578;SDS011;47998;53.242;6.386;2022-12-11T07:39:28;182.47;;;30.87;;
51578;SDS011;47998;53.242;6.386;2022-12-11T07:41:54;172.20;;;30.10;;
51578;SDS011;47998;53.242;6.386;2022-12-11T07:44:20;188.30;;;30.93;;
51578;SDS011;47998;53.242;6.386;2022-12-11T07:46:45;161.33;;;28.77;;
51578;SDS011;47998;53.242;6.386;2022-12-11T07:49:11;170.90;;;30.20;;
51578;SDS011;47998;53.242;6.386;2022-12-11T07:51:37;173.43;;;28.90;;
51578;SDS011;47998;53.242;6.386;2022-12-11T07:54:04;160.93;;;29.90;;
51578;SDS011;47998;53.242;6.386;2022-12-11T07:56:36;163.20;;;29.90;;
51578;SDS011;47998;53.242;6.386;2022-12-11T07:59:03;192.10;;;31.63;;
51578;SDS011;47998;53.242;6.386;2022-12-11T08:01:30;170.57;;;30.23;;
51578;SDS011;47998;53.242;6.386;2022-12-11T08:03:59;184.80;;;31.40;;
51578;SDS011;47998;53.242;6.386;2022-12-11T08:06:29;190.80;;;30.33;;
51578;SDS011;47998;53.242;6.386;2022-12-11T08:08:57;169.27;;;29.93;;
51578;SDS011;47998;53.242;6.386;2022-12-11T08:11:24;179.17;;;30.50;;
51578;SDS011;47998;53.242;6.386;2022-12-11T08:13:50;191.60;;;32.23;;
51578;SDS011;47998;53.242;6.386;2022-12-11T08:16:16;167.63;;;30.33;;
51578;SDS011;47998;53.242;6.386;2022-12-11T08:18:43;184.47;;;31.23;;
51578;SDS011;47998;53.242;6.386;2022-12-11T08:21:14;183.40;;;31.00;;
51578;SDS011;47998;53.242;6.386;2022-12-11T08:23:41;196.87;;;31.17;;
51578;SDS011;47998;53.242;6.386;2022-12-11T08:26:08;223.63;;;32.73;;
51578;SDS011;47998;53.242;6.386;2022-12-11T08:28:36;196.40;;;32.23;;
51578;SDS011;47998;53.242;6.386;2022-12-11T08:31:03;207.93;;;32.03;;
51578;SDS011;47998;53.242;6.386;2022-12-11T08:33:30;172.83;;;30.97;;
51578;SDS011;47998;53.242;6.386;2022-12-11T08:35:56;185.80;;;31.93;;
51578;SDS011;47998;53.242;6.386;2022-12-11T08:38:22;165.87;;;28.97;;
51578;SDS011;47998;53.242;6.386;2022-12-11T08:40:48;190.57;;;32.80;;
51578;SDS011;47998;53.242;6.386;2022-12-11T08:43:13;216.17;;;34.97;;
51578;SDS011;47998;53.242;6.386;2022-12-11T08:45:39;226.33;;;36.27;;
51578;SDS011;47998;53.242;6.386;2022-12-11T08:48:05;199.97;;;31.03;;
51578;SDS011;47998;53.242;6.386;2022-12-11T08:50:31;206.17;;;32.73;;
51578;SDS011;47998;53.242;6.386;2022-12-11T08:52:56;209.37;;;33.30;;
51578;SDS011;47998;53.242;6.386;2022-12-11T08:55:22;196.87;;;34.40;;
51578;SDS011;47998;53.242;6.386;2022-12-11T08:57:48;195.47;;;34.13;;
51578;SDS011;47998;53.242;6.386;2022-12-11T09:00:16;192.53;;;33.03;;
51578;SDS011;47998;53.242;6.386;2022-12-11T09:02:42;227.50;;;35.27;;
51578;SDS011;47998;53.242;6.386;2022-12-11T09:05:08;192.40;;;32.57;;
51578;SDS011;47998;53.242;6.386;2022-12-11T09:07:35;212.47;;;33.97;;
51578;SDS011;47998;53.242;6.386;2022-12-11T09:10:03;220.90;;;35.53;;
51578;SDS011;47998;53.242;6.386;2022-12-11T09:12:30;205.70;;;33.40;;
51578;SDS011;47998;53.242;6.386;2022-12-11T09:14:57;220.37;;;35.47;;
51578;SDS011;47998;53.242;6.386;2022-12-11T09:17:23;216.97;;;35.10;;
51578;SDS011;47998;53.242;6.386;2022-12-11T09:19:49;233.97;;;35.00;;
51578;SDS011;47998;53.242;6.386;2022-12-11T09:22:14;199.87;;;34.87;;
51578;SDS011;47998;53.242;6.386;2022-12-11T09:24:40;218.70;;;36.53;;
51578;SDS011;47998;53.242;6.386;2022-12-11T09:27:06;257.90;;;38.07;;
51578;SDS011;47998;53.242;6.386;2022-12-11T09:29:32;220.97;;;35.47;;
51578;SDS011;47998;53.242;6.386;2022-12-11T09:31:58;202.27;;;34.57;;
51578;SDS011;47998;53.242;6.386;2022-12-11T09:34:23;242.73;;;37.23;;
51578;SDS011;47998;53.242;6.386;2022-12-11T09:36:49;215.80;;;36.50;;
51578;SDS011;47998;53.242;6.386;2022-12-11T09:39:15;222.97;;;35.03;;
51578;SDS011;47998;53.242;6.386;2022-12-11T09:44:46;208.98;;;34.85;;
51578;SDS011;47998;53.242;6.386;2022-12-11T09:47:19;214.60;;;34.50;;
51578;SDS011;47998;53.242;6.386;2022-12-11T09:50:18;199.83;;;34.60;;
51578;SDS011;47998;53.242;6.386;2022-12-11T10:04:14;231.13;;;38.03;;
51578;SDS011;47998;53.242;6.386;2022-12-11T10:06:52;224.87;;;36.53;;
51578;SDS011;47998;53.242;6.386;2022-12-11T10:12:36;222.57;;;37.37;;
51578;SDS011;47998;53.242;6.386;2022-12-11T10:17:49;208.30;;;36.67;;
51578;SDS011;47998;53.242;6.386;2022-12-11T10:20:30;222.90;;;36.03;;
51578;SDS011;47998;53.242;6.386;2022-12-11T10:23:04;238.40;;;37.43;;
51578;SDS011;47998;53.242;6.386;2022-12-11T10:25:52;227.70;;;36.80;;
51578;SDS011;47998;53.242;6.386;2022-12-11T10:28:22;213.53;;;35.77;;
51578;SDS011;47998;53.242;6.386;2022-12-11T10:30:57;253.63;;;38.67;;
51578;SDS011;47998;53.242;6.386;2022-12-11T10:33:28;263.70;;;39.50;;
51578;SDS011;47998;53.242;6.386;2022-12-11T10:36:06;249.67;;;39.10;;
51578;SDS011;47998;53.242;6.386;2022-12-11T10:38:33;223.57;;;36.30;;
51578;SDS011;47998;53.242;6.386;2022-12-11T10:41:17;219.93;;;37.13;;
51578;SDS011;47998;53.242;6.386;2022-12-11T10:43:46;224.33;;;36.80;;
51578;SDS011;47998;53.242;6.386;2022-12-11T10:46:17;208.03;;;36.43;;
51578;SDS011;47998;53.242;6.386;2022-12-11T10:48:44;247.13;;;40.00;;
51578;SDS011;47998;53.242;6.386;2022-12-11T10:51:14;198.73;;;36.97;;
51578;SDS011;47998;53.242;6.386;2022-12-11T10:53:40;206.68;;;37.90;;
51578;SDS011;47998;53.242;6.386;2022-12-11T10:56:07;194.70;;;38.43;;
51578;SDS011;47998;53.242;6.386;2022-12-11T10:58:34;193.27;;;36.55;;
51578;SDS011;47998;53.242;6.386;2022-12-11T11:01:09;167.02;;;32.42;;
51578;SDS011;47998;53.242;6.386;2022-12-11T11:06:28;157.57;;;33.30;;
51578;SDS011;47998;53.242;6.386;2022-12-11T11:08:58;146.77;;;30.85;;
51578;SDS011;47998;53.242;6.386;2022-12-11T11:11:27;142.50;;;31.57;;
51578;SDS011;47998;53.242;6.386;2022-12-11T11:16:30;169.27;;;35.60;;
51578;SDS011;47998;53.242;6.386;2022-12-11T11:18:59;202.90;;;42.67;;
51578;SDS011;47998;53.242;6.386;2022-12-11T11:21:25;186.67;;;44.47;;
51578;SDS011;47998;53.242;6.386;2022-12-11T11:23:54;191.57;;;46.67;;
51578;SDS011;47998;53.242;6.386;2022-12-11T11:26:20;182.37;;;46.50;;
51578;SDS011;47998;53.242;6.386;2022-12-11T11:28:51;179.55;;;47.60;;
51578;SDS011;47998;53.242;6.386;2022-12-11T11:31:19;191.85;;;45.08;;
51578;SDS011;47998;53.242;6.386;2022-12-11T11:36:25;462.17;;;184.13;;
51578;SDS011;47998;53.242;6.386;2022-12-11T11:44:26;145.05;;;42.33;;
51578;SDS011;47998;53.242;6.386;2022-12-11T11:47:13;171.50;;;37.83;;
51578;SDS011;47998;53.242;6.386;2022-12-11T11:49:52;154.80;;;35.37;;
51578;SDS011;47998;53.242;6.386;2022-12-11T12:00:24;181.87;;;37.33;;
51578;SDS011;47998;53.242;6.386;2022-12-11T12:02:56;189.13;;;48.97;;
51578;SDS011;47998;53.242;6.386;2022-12-11T12:05:27;211.15;;;61.42;;
51578;SDS011;47998;53.242;6.386;2022-12-11T12:11:06;187.02;;;60.30;;
51578;SDS011;47998;53.242;6.386;2022-12-11T12:13:58;136.02;;;32.50;;
51578;SDS011;47998;53.242;6.386;2022-12-11T12:19:02;124.17;;;36.00;;
51578;SDS011;47998;53.242;6.386;2022-12-11T12:21:50;130.40;;;33.72;;
51578;SDS011;47998;53.242;6.386;2022-12-11T12:24:27;129.82;;;34.33;;
51578;SDS011;47998;53.242;6.386;2022-12-11T12:27:18;134.90;;;35.22;;
51578;SDS011;47998;53.242;6.386;2022-12-11T12:30:01;113.72;;;35.33;;
51578;SDS011;47998;53.242;6.386;2022-12-11T12:32:39;121.88;;;36.20;;
51578;SDS011;47998;53.242;6.386;2022-12-11T12:44:23;111.53;;;31.60;;
51578;SDS011;47998;53.242;6.386;2022-12-11T12:46:20;125.45;;;30.88;;
51578;SDS011;47998;53.242;6.386;2022-12-11T12:49:14;118.43;;;31.02;;
51578;SDS011;47998;53.242;6.386;2022-12-11T12:51:52;110.20;;;29.07;;
51578;SDS011;47998;53.242;6.386;2022-12-11T12:54:18;104.97;;;29.07;;
51578;SDS011;47998;53.242;6.386;2022-12-11T12:56:45;99.27;;;28.10;;
51578;SDS011;47998;53.242;6.386;2022-12-11T12:59:19;112.70;;;30.00;;
51578;SDS011;47998;53.242;6.386;2022-12-11T13:01:48;123.23;;;30.57;;
51578;SDS011;47998;53.242;6.386;2022-12-11T13:07:15;110.60;;;30.48;;
51578;SDS011;47998;53.242;6.386;2022-12-11T13:10:06;116.23;;;32.53;;
51578;SDS011;47998;53.242;6.386;2022-12-11T13:12:49;119.27;;;30.77;;
51578;SDS011;47998;53.242;6.386;2022-12-11T13:15:24;110.00;;;29.53;;
51578;SDS011;47998;53.242;6.386;2022-12-11T13:17:50;130.93;;;31.50;;
51578;SDS011;47998;53.242;6.386;2022-12-11T13:20:18;109.82;;;30.30;;
51578;SDS011;47998;53.242;6.386;2022-12-11T13:25:27;126.70;;;32.70;;
51578;SDS011;47998;53.242;6.386;2022-12-11T13:28:05;104.70;;;27.53;;
51578;SDS011;47998;53.242;6.386;2022-12-11T13:30:32;115.70;;;30.47;;
51578;SDS011;47998;53.242;6.386;2022-12-11T13:35:29;126.43;;;30.63;;
51578;SDS011;47998;53.242;6.386;2022-12-11T13:38:02;120.30;;;31.07;;
51578;SDS011;47998;53.242;6.386;2022-12-11T13:40:36;134.93;;;36.75;;
51578;SDS011;47998;53.242;6.386;2022-12-11T13:43:05;149.80;;;45.25;;
51578;SDS011;47998;53.242;6.386;2022-12-11T13:45:47;149.43;;;39.63;;
51578;SDS011;47998;53.242;6.386;2022-12-11T13:48:20;132.70;;;32.15;;
51578;SDS011;47998;53.242;6.386;2022-12-11T13:50:58;106.45;;;33.70;;
51578;SDS011;47998;53.242;6.386;2022-12-11T13:53:26;124.73;;;33.17;;
51578;SDS011;47998;53.242;6.386;2022-12-11T13:55:55;145.25;;;32.53;;
51578;SDS011;47998;53.242;6.386;2022-12-11T13:58:27;133.17;;;32.77;;
51578;SDS011;47998;53.242;6.386;2022-12-11T14:00:56;128.52;;;31.67;;
51578;SDS011;47998;53.242;6.386;2022-12-11T14:03:28;124.45;;;28.90;;
51578;SDS011;47998;53.242;6.386;2022-12-11T14:05:55;124.45;;;29.98;;
51578;SDS011;47998;53.242;6.386;2022-12-11T14:08:22;130.53;;;30.60;;
51578;SDS011;47998;53.242;6.386;2022-12-11T14:10:54;125.60;;;30.30;;
51578;SDS011;47998;53.242;6.386;2022-12-11T14:13:24;123.03;;;30.13;;
51578;SDS011;47998;53.242;6.386;2022-12-11T14:15:54;122.00;;;30.38;;
51578;SDS011;47998;53.242;6.386;2022-12-11T14:18:21;119.43;;;31.00;;
51578;SDS011;47998;53.242;6.386;2022-12-11T14:20:52;101.15;;;30.17;;
51578;SDS011;47998;53.242;6.386;2022-12-11T14:23:29;125.45;;;31.80;;
51578;SDS011;47998;53.242;6.386;2022-12-11T14:26:00;118.50;;;30.38;;
51578;SDS011;47998;53.242;6.386;2022-12-11T14:28:44;116.30;;;30.10;;
51578;SDS011;47998;53.242;6.386;2022-12-11T14:31:12;139.93;;;38.77;;
51578;SDS011;47998;53.242;6.386;2022-12-11T14:33:42;173.57;;;45.30;;
51578;SDS011;47998;53.242;6.386;2022-12-11T14:36:11;130.23;;;32.10;;
51578;SDS011;47998;53.242;6.386;2022-12-11T14:38:43;104.10;;;29.35;;
51578;SDS011;47998;53.242;6.386;2022-12-11T14:41:43;119.35;;;31.92;;
51578;SDS011;47998;53.242;6.386;2022-12-11T14:44:20;130.37;;;36.30;;
51578;SDS011;47998;53.242;6.386;2022-12-11T14:46:53;122.13;;;34.83;;
51578;SDS011;47998;53.242;6.386;2022-12-11T14:49:27;125.40;;;35.95;;
51578;SDS011;47998;53.242;6.386;2022-12-11T14:52:04;116.40;;;34.13;;
51578;SDS011;47998;53.242;6.386;2022-12-11T14:54:38;110.65;;;33.47;;
51578;SDS011;47998;53.242;6.386;2022-12-11T14:57:07;138.70;;;44.50;;
51578;SDS011;47998;53.242;6.386;2022-12-11T14:59:43;142.55;;;50.47;;
51578;SDS011;47998;53.242;6.386;2022-12-11T15:02:20;128.93;;;35.73;;
51578;SDS011;47998;53.242;6.386;2022-12-11T15:07:53;106.57;;;31.13;;
51578;SDS011;47998;53.242;6.386;2022-12-11T15:10:22;128.00;;;31.48;;
51578;SDS011;47998;53.242;6.386;2022-12-11T15:12:55;118.20;;;29.73;;
51578;SDS011;47998;53.242;6.386;2022-12-11T15:15:22;138.43;;;32.37;;
51578;SDS011;47998;53.242;6.386;2022-12-11T15:17:48;122.13;;;31.40;;
51578;SDS011;47998;53.242;6.386;2022-12-11T15:20:26;113.80;;;30.20;;
51578;SDS011;47998;53.242;6.386;2022-12-11T15:22:54;113.50;;;30.00;;
51578;SDS011;47998;53.242;6.386;2022-12-11T15:25:25;139.50;;;31.97;;
51578;SDS011;47998;53.242;6.386;2022-12-11T15:27:58;103.70;;;29.43;;
51578;SDS011;47998;53.242;6.386;2022-12-11T15:35:26;99.37;;;28.70;;
51578;SDS011;47998;53.242;6.386;2022-12-11T15:37:53;45.87;;;19.20;;
51578;SDS011;47998;53.242;6.386;2022-12-11T15:40:20;44.40;;;18.70;;
51578;SDS011;47998;53.242;6.386;2022-12-11T15:42:46;43.57;;;19.47;;
51578;SDS011;47998;53.242;6.386;2022-12-11T15:45:19;48.57;;;19.70;;
51578;SDS011;47998;53.242;6.386;2022-12-11T15:47:47;81.17;;;32.93;;
51578;SDS011;47998;53.242;6.386;2022-12-11T15:50:17;58.50;;;24.53;;
51578;SDS011;47998;53.242;6.386;2022-12-11T15:52:48;47.80;;;20.93;;
51578;SDS011;47998;53.242;6.386;2022-12-11T15:55:16;60.27;;;23.57;;
51578;SDS011;47998;53.242;6.386;2022-12-11T15:57:46;51.70;;;22.83;;